createdAt,value
2023-08-24T00:01:29.567Z,11.77
2023-08-24T00:03:01.561Z,9.77
2023-08-24T00:04:32.973Z,9.84
2023-08-24T00:06:04.453Z,8.25
2023-08-24T00:07:35.902Z,9.28
2023-08-24T00:09:07.366Z,8.94
2023-08-24T00:10:38.748Z,11.20
2023-08-24T00:12:10.245Z,10.57
2023-08-24T00:13:41.609Z,10.67
2023-08-24T00:15:13.010Z,10.89
2023-08-24T00:16:44.565Z,11.56
2023-08-24T00:18:15.989Z,11.99
2023-08-24T00:19:47.452Z,10.35
2023-08-24T00:21:19.168Z,10.41
2023-08-24T00:22:50.665Z,12.81
2023-08-24T00:24:27.100Z,10.04
2023-08-24T00:26:08.524Z,10.78
2023-08-24T00:27:40.131Z,12.21
2023-08-24T00:29:11.456Z,10.90
2023-08-24T00:30:42.849Z,12.60
2023-08-24T00:32:14.331Z,11.24
2023-08-24T00:33:45.713Z,12.25
2023-08-24T00:35:17.087Z,12.06
2023-08-24T00:36:48.588Z,12.27
2023-08-24T00:38:19.924Z,10.83
2023-08-24T00:39:51.348Z,9.52
2023-08-24T00:41:22.867Z,10.81
2023-08-24T00:42:59.705Z,9.60
2023-08-24T00:44:36.237Z,10.36
2023-08-24T00:46:07.849Z,12.08
2023-08-24T00:47:39.335Z,10.27
2023-08-24T00:49:10.765Z,10.15
2023-08-24T00:50:42.392Z,10.74
2023-08-24T00:52:13.757Z,10.25
2023-08-24T00:53:45.206Z,9.60
2023-08-24T00:55:16.655Z,12.37
2023-08-24T00:56:48.120Z,12.62
2023-08-24T00:58:19.626Z,9.39
2023-08-24T00:59:50.998Z,8.63
2023-08-24T01:01:22.443Z,11.07
2023-08-24T01:02:54.125Z,12.08
2023-08-24T01:04:25.597Z,10.53
2023-08-24T01:05:56.952Z,12.06
2023-08-24T01:07:28.501Z,11.61
2023-08-24T01:08:59.885Z,13.39
2023-08-24T01:10:31.420Z,10.00
2023-08-24T01:12:03.045Z,12.83
2023-08-24T01:13:34.457Z,11.60
2023-08-24T01:15:05.770Z,9.70
2023-08-24T01:16:37.249Z,10.28
2023-08-24T01:18:09.054Z,11.28
2023-08-24T01:19:40.569Z,9.98
2023-08-24T01:21:12.094Z,10.53
2023-08-24T01:22:43.536Z,11.32
2023-08-24T01:24:14.959Z,9.65
2023-08-24T01:27:42.530Z,11.84
2023-08-24T01:29:13.930Z,11.05
2023-08-24T01:30:45.369Z,13.18
2023-08-24T01:32:26.766Z,10.53
2023-08-24T01:34:03.316Z,11.50
2023-08-24T01:35:49.778Z,11.43
2023-08-24T01:37:21.252Z,8.99
2023-08-24T01:38:52.578Z,11.15
2023-08-24T01:40:39.166Z,12.75
2023-08-24T01:42:10.615Z,10.27
2023-08-24T01:43:44.178Z,10.82
2023-08-24T01:45:15.895Z,13.17
2023-08-24T01:46:47.556Z,9.19
2023-08-24T01:48:19.065Z,9.22
2023-08-24T01:49:50.606Z,10.01
2023-08-24T01:51:22.001Z,10.91
2023-08-24T01:52:53.460Z,9.35
2023-08-24T01:54:24.819Z,10.49
2023-08-24T01:55:56.231Z,10.79
2023-08-24T01:57:27.760Z,10.80
2023-08-24T01:58:59.212Z,11.38
2023-08-24T02:00:30.664Z,11.35
2023-08-24T02:02:12.242Z,10.80
2023-08-24T02:03:43.782Z,10.83
2023-08-24T02:05:15.311Z,10.01
2023-08-24T02:06:51.753Z,10.73
2023-08-24T02:08:23.586Z,11.41
2023-08-24T02:09:55.133Z,9.56
2023-08-24T02:11:26.503Z,9.74
2023-08-24T02:12:58.179Z,10.68
2023-08-24T02:14:29.477Z,11.05
2023-08-24T02:16:00.944Z,10.41
2023-08-24T02:17:34.086Z,9.51
2023-08-24T02:19:05.505Z,11.98
2023-08-24T02:20:36.866Z,11.47
2023-08-24T02:22:08.263Z,9.75
2023-08-24T02:23:39.917Z,13.14
2023-08-24T02:25:11.287Z,11.11
2023-08-24T02:26:42.970Z,9.17
2023-08-24T02:28:14.361Z,10.79
2023-08-24T02:29:45.995Z,12.04
2023-08-24T02:31:18.242Z,10.96
2023-08-24T02:32:49.896Z,11.98
2023-08-24T02:34:21.719Z,10.33
2023-08-24T02:35:53.212Z,11.88
2023-08-24T02:37:24.591Z,11.44
2023-08-24T02:38:57.204Z,10.29
2023-08-24T02:40:29.246Z,10.52
2023-08-24T02:42:00.802Z,11.73
2023-08-24T02:43:32.425Z,9.13
2023-08-24T02:45:03.736Z,11.96
2023-08-24T02:46:35.114Z,11.42
2023-08-24T02:48:11.600Z,11.92
2023-08-24T02:49:43.036Z,9.51
2023-08-24T02:51:29.556Z,11.06
2023-08-24T02:53:06.266Z,11.54
2023-08-24T02:54:48.173Z,10.22
2023-08-24T02:56:19.838Z,10.24
2023-08-24T02:57:51.576Z,11.37
2023-08-24T02:59:23.365Z,8.82
2023-08-24T03:00:56.040Z,10.89
2023-08-24T03:02:27.961Z,12.03
2023-08-24T03:04:14.447Z,12.59
2023-08-24T03:05:46.993Z,10.47
2023-08-24T03:07:28.472Z,11.08
2023-08-24T03:09:00.998Z,11.15
2023-08-24T03:10:37.404Z,10.73
2023-08-24T03:12:14.888Z,11.85
2023-08-24T03:13:46.261Z,12.14
2023-08-24T03:15:18.002Z,11.85
2023-08-24T03:16:49.766Z,11.78
2023-08-24T03:18:21.134Z,9.01
2023-08-24T03:19:52.766Z,9.11
2023-08-24T03:21:24.118Z,10.42
2023-08-24T03:22:55.519Z,10.37
2023-08-24T03:24:26.920Z,11.80
2023-08-24T03:25:58.300Z,9.00
2023-08-24T03:27:29.885Z,10.80
2023-08-24T03:29:01.253Z,11.52
2023-08-24T03:30:32.690Z,10.67
2023-08-24T03:32:04.068Z,12.08
2023-08-24T03:33:35.582Z,10.38
2023-08-24T03:35:16.975Z,10.69
2023-08-24T03:37:03.415Z,10.70
2023-08-24T03:38:34.926Z,11.04
2023-08-24T03:40:06.303Z,12.74
2023-08-24T03:41:37.751Z,10.64
2023-08-24T03:43:09.095Z,9.53
2023-08-24T03:44:40.580Z,8.80
2023-08-24T03:46:11.987Z,9.69
2023-08-24T03:47:43.428Z,11.95
2023-08-24T03:49:15.086Z,11.70
2023-08-24T03:50:46.548Z,10.32
2023-08-24T03:52:23.100Z,11.39
2023-08-24T03:54:09.561Z,9.45
2023-08-24T03:56:16.060Z,10.75
2023-08-24T03:57:57.485Z,11.91
2023-08-24T03:59:28.883Z,11.35
2023-08-24T04:01:00.278Z,11.13
2023-08-24T04:02:31.732Z,11.73
2023-08-24T04:04:03.223Z,10.08
2023-08-24T04:05:39.692Z,11.51
2023-08-24T04:07:11.140Z,9.71
2023-08-24T04:08:42.590Z,11.19
2023-08-24T04:10:13.991Z,11.26
2023-08-24T04:11:45.417Z,10.37
2023-08-24T04:13:16.812Z,11.70
2023-08-24T04:14:48.241Z,14.55
2023-08-24T04:16:19.808Z,10.11
2023-08-24T04:17:51.673Z,11.94
2023-08-24T04:19:23.278Z,11.47
2023-08-24T04:20:54.669Z,11.47
2023-08-24T04:22:26.119Z,9.93
2023-08-24T04:23:57.725Z,12.36
2023-08-24T04:25:29.069Z,11.35
2023-08-24T04:27:00.399Z,10.73
2023-08-24T04:28:31.832Z,9.92
2023-08-24T04:30:03.175Z,10.28
2023-08-24T04:31:34.626Z,11.52
2023-08-24T04:33:06.059Z,10.46
2023-08-24T04:34:37.520Z,9.00
2023-08-24T04:36:08.973Z,10.02
2023-08-24T04:37:40.648Z,10.34
2023-08-24T04:39:12.053Z,10.75
2023-08-24T04:40:43.402Z,12.02
2023-08-24T04:42:14.781Z,11.77
2023-08-24T04:43:46.353Z,10.13
2023-08-24T04:45:17.719Z,9.93
2023-08-24T04:46:49.148Z,11.34
2023-08-24T04:48:20.737Z,13.12
2023-08-24T04:49:52.145Z,11.20
2023-08-24T04:51:23.725Z,13.60
2023-08-24T04:52:55.368Z,10.90
2023-08-24T04:54:26.843Z,11.11
2023-08-24T04:55:58.346Z,10.07
2023-08-24T04:57:29.730Z,11.73
2023-08-24T04:59:01.173Z,13.35
2023-08-24T05:00:32.509Z,10.40
2023-08-24T05:02:04.010Z,13.02
2023-08-24T05:03:35.774Z,14.56
2023-08-24T05:05:07.469Z,11.06
2023-08-24T05:06:38.852Z,11.98
2023-08-24T05:08:12.846Z,12.90
2023-08-24T05:09:45.219Z,11.79
2023-08-24T05:11:16.849Z,11.11
2023-08-24T05:12:48.502Z,10.65
2023-08-24T05:14:19.915Z,9.81
2023-08-24T05:15:51.342Z,10.27
2023-08-24T05:17:22.793Z,13.85
2023-08-24T05:18:54.376Z,12.05
2023-08-24T05:20:26.110Z,13.13
2023-08-24T05:21:57.549Z,14.95
2023-08-24T05:23:29.021Z,13.29
2023-08-24T05:25:00.632Z,12.80
2023-08-24T05:26:31.989Z,10.62
2023-08-24T05:28:03.690Z,12.39
2023-08-24T05:29:35.197Z,12.22
2023-08-24T05:31:06.794Z,12.00
2023-08-24T05:32:38.351Z,9.08
2023-08-24T05:34:09.857Z,10.66
2023-08-24T05:35:41.425Z,10.16
2023-08-24T05:37:12.887Z,10.00
2023-08-24T05:38:55.121Z,10.17
2023-08-24T05:40:35.642Z,12.56
2023-08-24T05:42:07.171Z,10.92
2023-08-24T05:43:38.607Z,9.32
2023-08-24T05:45:10.218Z,10.83
2023-08-24T05:46:41.610Z,10.75
2023-08-24T05:48:13.278Z,10.95
2023-08-24T05:49:44.994Z,10.60
2023-08-24T05:51:16.797Z,10.48
2023-08-24T05:52:48.535Z,10.09
2023-08-24T05:54:20.152Z,9.56
2023-08-24T05:55:51.674Z,10.97
2023-08-24T05:57:25.212Z,12.34
2023-08-24T05:58:57.006Z,9.96
2023-08-24T06:00:28.376Z,13.08
2023-08-24T06:01:59.756Z,11.04
2023-08-24T06:03:31.439Z,11.55
2023-08-24T06:05:02.864Z,11.63
2023-08-24T06:06:34.808Z,12.63
2023-08-24T06:08:06.465Z,10.52
2023-08-24T06:09:37.877Z,12.92
2023-08-24T06:11:09.396Z,10.97
2023-08-24T06:12:40.883Z,12.77
2023-08-24T06:14:12.431Z,12.66
2023-08-24T06:15:43.905Z,13.50
2023-08-24T06:17:15.529Z,12.38
2023-08-24T06:18:46.938Z,12.22
2023-08-24T06:20:18.318Z,11.62
2023-08-24T06:21:49.748Z,12.44
2023-08-24T06:23:21.183Z,11.79
2023-08-24T06:24:52.559Z,10.27
2023-08-24T06:26:23.890Z,13.98
2023-08-24T06:27:55.686Z,11.89
2023-08-24T06:29:27.192Z,12.14
2023-08-24T06:30:58.552Z,12.06
2023-08-24T06:32:30.050Z,13.14
2023-08-24T06:34:02.034Z,11.88
2023-08-24T06:35:33.527Z,9.07
2023-08-24T06:37:04.981Z,9.42
2023-08-24T06:38:36.314Z,11.53
2023-08-24T06:40:07.683Z,11.68
2023-08-24T06:41:39.255Z,11.71
2023-08-24T06:43:10.670Z,14.31
2023-08-24T06:44:42.456Z,14.37
2023-08-24T06:46:14.594Z,10.06
2023-08-24T06:47:46.288Z,9.69
2023-08-24T06:49:17.956Z,11.21
2023-08-24T06:50:50.543Z,11.57
2023-08-24T06:52:22.470Z,11.43
2023-08-24T06:53:54.630Z,12.01
2023-08-24T06:55:26.332Z,12.52
2023-08-24T06:56:57.884Z,12.07
2023-08-24T06:58:29.259Z,13.43
2023-08-24T07:00:00.895Z,12.33
2023-08-24T07:01:32.400Z,12.43
2023-08-24T07:03:03.964Z,11.03
2023-08-24T07:04:35.612Z,12.17
2023-08-24T07:06:07.037Z,10.66
2023-08-24T07:07:38.534Z,11.70
2023-08-24T07:09:09.992Z,12.01
2023-08-24T07:10:41.483Z,12.59
2023-08-24T07:12:12.891Z,10.52
2023-08-24T07:13:44.316Z,12.04
2023-08-24T07:15:15.871Z,11.84
2023-08-24T07:16:47.407Z,15.26
2023-08-24T07:18:20.994Z,13.80
2023-08-24T07:19:52.876Z,10.29
2023-08-24T07:21:24.248Z,13.00
2023-08-24T07:22:55.703Z,10.94
2023-08-24T07:24:38.943Z,10.25
2023-08-24T07:26:16.647Z,10.50
2023-08-24T07:27:48.147Z,10.58
2023-08-24T07:29:20.026Z,9.30
2023-08-24T07:30:51.712Z,11.71
2023-08-24T07:32:23.457Z,11.59
2023-08-24T07:33:55.015Z,8.85
2023-08-24T07:35:26.489Z,10.68
2023-08-24T07:36:57.903Z,12.51
2023-08-24T07:38:29.333Z,13.95
2023-08-24T07:40:00.770Z,11.30
2023-08-24T07:41:32.177Z,11.27
2023-08-24T07:43:03.563Z,13.34
2023-08-24T07:44:35.056Z,13.25
2023-08-24T07:46:08.784Z,12.28
2023-08-24T07:47:42.890Z,12.04
2023-08-24T07:49:14.471Z,12.15
2023-08-24T07:50:45.865Z,13.03
2023-08-24T07:52:17.372Z,12.20
2023-08-24T07:53:48.904Z,11.96
2023-08-24T07:55:20.372Z,12.88
2023-08-24T07:56:51.888Z,13.16
2023-08-24T07:58:23.357Z,13.12
2023-08-24T07:59:54.779Z,11.78
2023-08-24T08:01:26.382Z,12.73
2023-08-24T08:02:58.008Z,11.99
2023-08-24T08:04:35.165Z,13.02
2023-08-24T08:06:06.898Z,11.50
2023-08-24T08:07:38.324Z,13.20
2023-08-24T08:09:09.769Z,11.84
2023-08-24T08:10:41.294Z,11.70
2023-08-24T08:12:12.881Z,13.63
2023-08-24T08:13:44.402Z,9.97
2023-08-24T08:15:15.830Z,8.87
2023-08-24T08:16:47.252Z,12.42
2023-08-24T08:18:18.678Z,8.72
2023-08-24T08:19:50.377Z,9.16
2023-08-24T08:21:22.788Z,12.09
2023-08-24T08:22:55.746Z,11.19
2023-08-24T08:24:27.184Z,9.64
2023-08-24T08:25:58.830Z,9.21
2023-08-24T08:27:30.259Z,10.19
2023-08-24T08:29:01.891Z,8.90
2023-08-24T08:30:33.402Z,8.82
2023-08-24T08:32:05.159Z,11.16
2023-08-24T08:33:36.633Z,11.11
2023-08-24T08:35:08.030Z,11.08
2023-08-24T08:36:39.485Z,9.60
2023-08-24T08:38:11.124Z,8.94
2023-08-24T08:39:42.670Z,10.11
2023-08-24T08:41:14.130Z,9.83
2023-08-24T08:42:45.596Z,10.49
2023-08-24T08:44:17.017Z,8.59
2023-08-24T08:45:48.470Z,10.73
2023-08-24T08:47:19.996Z,9.33
2023-08-24T08:48:51.520Z,8.86
2023-08-24T08:50:23.128Z,10.47
2023-08-24T08:51:54.646Z,10.92
2023-08-24T08:53:26.165Z,7.99
2023-08-24T08:54:57.774Z,10.02
2023-08-24T08:56:29.295Z,8.44
2023-08-24T08:58:00.786Z,8.12
2023-08-24T08:59:32.290Z,9.18
2023-08-24T09:01:03.801Z,10.43
2023-08-24T09:02:35.419Z,8.23
2023-08-24T09:04:06.900Z,9.35
2023-08-24T09:05:38.562Z,10.67
2023-08-24T09:07:09.984Z,10.52
2023-08-24T09:08:41.459Z,10.27
2023-08-24T09:10:13.001Z,8.23
2023-08-24T09:11:44.475Z,8.20
2023-08-24T09:13:15.903Z,9.10
2023-08-24T09:14:47.431Z,8.17
2023-08-24T09:16:18.894Z,8.28
2023-08-24T09:17:50.890Z,9.19
2023-08-24T09:19:22.687Z,9.44
2023-08-24T09:20:54.109Z,8.74
2023-08-24T09:22:25.661Z,8.09
2023-08-24T09:23:57.143Z,8.25
2023-08-24T09:25:28.846Z,7.96
2023-08-24T09:27:00.397Z,8.31
2023-08-24T09:28:31.819Z,7.45
2023-08-24T09:30:03.416Z,8.31
2023-08-24T09:31:34.972Z,10.04
2023-08-24T09:33:06.486Z,8.66
2023-08-24T09:34:38.033Z,6.95
2023-08-24T09:36:09.572Z,8.33
2023-08-24T09:37:41.051Z,6.74
2023-08-24T09:39:12.684Z,7.50
2023-08-24T09:40:44.140Z,7.81
2023-08-24T09:42:15.671Z,9.58
2023-08-24T09:43:47.277Z,7.59
2023-08-24T09:45:19.238Z,9.60
2023-08-24T09:46:50.753Z,8.71
2023-08-24T09:48:22.224Z,7.58
2023-08-24T09:49:53.694Z,7.73
2023-08-24T09:51:43.116Z,5.72
2023-08-24T09:53:14.634Z,7.21
2023-08-24T09:54:46.194Z,6.80
2023-08-24T09:56:17.675Z,7.57
2023-08-24T09:57:49.353Z,6.95
2023-08-24T09:59:20.936Z,6.46
2023-08-24T10:00:52.420Z,6.13
2023-08-24T10:02:24.157Z,7.49
2023-08-24T10:03:55.736Z,8.27
2023-08-24T10:05:36.862Z,8.89
2023-08-24T10:07:10.977Z,8.22
2023-08-24T10:08:42.636Z,8.95
2023-08-24T10:10:14.128Z,7.80
2023-08-24T10:11:45.601Z,7.01
2023-08-24T10:13:17.104Z,6.64
2023-08-24T10:14:48.607Z,6.45
2023-08-24T10:16:20.090Z,8.00
2023-08-24T10:17:56.682Z,6.39
2023-08-24T10:19:28.235Z,8.68
2023-08-24T10:20:59.856Z,5.43
2023-08-24T10:22:31.384Z,6.04
2023-08-24T10:24:07.884Z,8.59
2023-08-24T10:25:39.377Z,6.23
2023-08-24T10:27:10.969Z,5.93
2023-08-24T10:28:42.697Z,8.70
2023-08-24T10:31:52.640Z,5.60
2023-08-24T10:33:24.250Z,5.00
2023-08-24T10:34:55.844Z,6.19
2023-08-24T10:36:27.358Z,5.32
2023-08-24T10:37:58.860Z,6.45
2023-08-24T10:39:30.489Z,6.30
2023-08-24T10:41:02.096Z,6.64
2023-08-24T10:42:33.625Z,6.05
2023-08-24T10:44:06.567Z,7.41
2023-08-24T10:45:38.121Z,8.24
2023-08-24T10:47:09.625Z,7.52
2023-08-24T10:48:41.219Z,7.84
2023-08-24T10:50:12.770Z,6.12
2023-08-24T10:51:44.424Z,7.59
2023-08-24T10:53:15.978Z,5.74
2023-08-24T10:54:47.812Z,6.84
2023-08-24T10:56:19.322Z,7.08
2023-08-24T10:57:51.826Z,6.50
2023-08-24T10:59:24.566Z,5.93
2023-08-24T11:00:58.429Z,7.92
2023-08-24T11:02:30.108Z,8.59
2023-08-24T11:04:01.740Z,6.69
2023-08-24T11:05:33.306Z,7.49
2023-08-24T11:07:04.861Z,7.93
2023-08-24T11:08:36.593Z,5.72
2023-08-24T11:10:08.191Z,5.86
2023-08-24T11:11:39.721Z,8.29
2023-08-24T11:13:11.250Z,5.91
2023-08-24T11:14:42.991Z,5.86
2023-08-24T11:16:14.772Z,6.37
2023-08-24T11:17:46.545Z,6.68
2023-08-24T11:19:18.154Z,7.35
2023-08-24T11:20:49.768Z,6.52
2023-08-24T11:22:21.366Z,7.09
2023-08-24T11:23:52.939Z,5.99
2023-08-24T11:25:24.529Z,6.29
2023-08-24T11:26:56.130Z,7.46
2023-08-24T11:28:27.748Z,7.21
2023-08-24T11:29:59.431Z,6.76
2023-08-24T11:31:31.084Z,7.41
2023-08-24T11:33:02.722Z,6.34
2023-08-24T11:34:34.407Z,8.96
2023-08-24T11:36:06.078Z,7.52
2023-08-24T11:37:37.696Z,7.33
2023-08-24T11:39:09.314Z,8.17
2023-08-24T11:40:40.942Z,7.68
2023-08-24T11:42:12.495Z,8.28
2023-08-24T11:43:44.148Z,7.67
2023-08-24T11:45:15.762Z,5.55
2023-08-24T11:46:47.459Z,6.52
2023-08-24T11:48:19.134Z,8.70
2023-08-24T11:49:50.773Z,7.48
2023-08-24T11:51:33.446Z,6.78
2023-08-24T11:53:13.585Z,8.50
2023-08-24T11:54:45.401Z,7.47
2023-08-24T11:56:17.776Z,5.78
2023-08-24T11:57:50.983Z,7.90
2023-08-24T11:59:23.622Z,7.85
2023-08-24T12:00:55.330Z,7.24
2023-08-24T12:02:27.163Z,5.57
2023-08-24T12:03:58.803Z,5.76
2023-08-24T12:05:30.511Z,5.61
2023-08-24T12:07:02.229Z,6.72
2023-08-24T12:08:33.865Z,6.07
2023-08-24T12:10:05.463Z,6.68
2023-08-24T12:11:37.028Z,4.75
2023-08-24T12:13:09.827Z,5.51
2023-08-24T12:14:43.388Z,7.17
2023-08-24T12:16:15.330Z,6.37
2023-08-24T12:17:47.250Z,9.65
2023-08-24T12:19:18.884Z,6.10
2023-08-24T12:20:50.580Z,7.20
2023-08-24T12:22:22.278Z,5.47
2023-08-24T12:23:54.005Z,6.56
2023-08-24T12:25:25.557Z,6.60
2023-08-24T12:26:57.181Z,6.66
2023-08-24T12:28:28.957Z,6.58
2023-08-24T12:30:00.552Z,5.90
2023-08-24T12:31:32.123Z,4.75
2023-08-24T12:33:03.732Z,7.65
2023-08-24T12:34:35.613Z,7.75
2023-08-24T12:36:07.163Z,5.55
2023-08-24T12:37:38.858Z,5.15
2023-08-24T12:39:15.536Z,6.03
2023-08-24T12:40:47.041Z,5.03
2023-08-24T12:42:18.658Z,6.23
2023-08-24T12:43:50.438Z,5.92
2023-08-24T12:45:23.962Z,5.68
2023-08-24T12:46:55.798Z,5.18
2023-08-24T12:48:27.668Z,5.93
2023-08-24T12:49:59.610Z,6.87
2023-08-24T12:51:31.153Z,7.31
2023-08-24T12:53:02.677Z,7.97
2023-08-24T12:54:34.382Z,6.44
2023-08-24T12:56:06.000Z,5.73
2023-08-24T12:57:42.597Z,7.64
2023-08-24T12:59:14.239Z,6.61
2023-08-24T13:00:45.889Z,5.84
2023-08-24T13:03:53.709Z,5.78
2023-08-24T13:05:25.402Z,9.21
2023-08-24T13:06:56.935Z,6.05
2023-08-24T13:08:28.571Z,7.64
2023-08-24T13:10:00.269Z,5.83
2023-08-24T13:11:31.867Z,9.38
2023-08-24T13:13:03.626Z,7.93
2023-08-24T13:14:35.456Z,7.90
2023-08-24T13:16:07.155Z,7.94
2023-08-24T13:17:39.009Z,7.84
2023-08-24T13:19:10.580Z,7.69
2023-08-24T13:20:42.173Z,7.35
2023-08-24T13:22:13.756Z,9.68
2023-08-24T13:23:45.320Z,7.89
2023-08-24T13:25:16.928Z,7.39
2023-08-24T13:26:48.707Z,10.24
2023-08-24T13:28:20.221Z,8.79
2023-08-24T13:29:51.780Z,8.03
2023-08-24T13:31:23.320Z,7.12
2023-08-24T13:32:55.297Z,8.90
2023-08-24T13:34:26.937Z,7.63
2023-08-24T13:35:58.460Z,9.72
2023-08-24T13:37:29.948Z,7.69
2023-08-24T13:39:01.454Z,6.68
2023-08-24T13:40:33.077Z,7.41
2023-08-24T13:42:04.565Z,7.76
2023-08-24T13:43:36.167Z,7.70
2023-08-24T13:45:07.657Z,8.28
2023-08-24T13:46:39.418Z,7.66
2023-08-24T13:48:11.100Z,5.55
2023-08-24T13:49:42.771Z,8.34
2023-08-24T13:51:15.975Z,9.43
2023-08-24T13:52:48.240Z,8.53
2023-08-24T13:54:19.744Z,9.13
2023-08-24T13:55:51.394Z,7.23
2023-08-24T13:57:23.353Z,7.33
2023-08-24T13:58:54.998Z,8.52
2023-08-24T14:00:26.629Z,36.31
2023-08-24T14:01:58.173Z,16.45
2023-08-24T14:03:29.946Z,6.61
2023-08-24T14:05:01.569Z,6.88
2023-08-24T14:06:33.105Z,7.93
2023-08-24T14:08:04.746Z,7.30
2023-08-24T14:09:37.428Z,9.80
2023-08-24T14:11:09.182Z,8.36
2023-08-24T14:12:41.882Z,6.27
2023-08-24T14:14:13.447Z,9.69
2023-08-24T14:15:45.247Z,6.66
2023-08-24T14:17:17.178Z,6.04
2023-08-24T14:19:11.631Z,8.67
2023-08-24T14:20:43.336Z,7.32
2023-08-24T14:22:14.849Z,7.71
2023-08-24T14:23:46.504Z,7.28
2023-08-24T14:25:18.014Z,7.06
2023-08-24T14:26:51.431Z,7.68
2023-08-24T14:28:23.056Z,7.83
2023-08-24T14:29:54.516Z,7.76
2023-08-24T14:31:26.728Z,5.59
2023-08-24T14:32:59.626Z,8.08
2023-08-24T14:34:31.429Z,9.62
2023-08-24T14:36:03.152Z,8.46
2023-08-24T14:37:34.661Z,8.20
2023-08-24T14:39:06.227Z,6.61
2023-08-24T14:40:37.879Z,7.36
2023-08-24T14:42:09.617Z,7.13
2023-08-24T14:43:41.140Z,6.60
2023-08-24T14:45:12.688Z,8.21
2023-08-24T14:46:44.249Z,8.35
2023-08-24T14:48:16.140Z,6.39
2023-08-24T14:49:48.133Z,6.16
2023-08-24T14:51:19.663Z,7.18
2023-08-24T14:52:51.339Z,6.18
2023-08-24T14:54:22.881Z,5.85
2023-08-24T14:55:54.427Z,7.01
2023-08-24T14:57:26.039Z,6.32
2023-08-24T14:58:57.611Z,6.35
2023-08-24T15:00:29.324Z,6.24
2023-08-24T15:02:00.906Z,5.83
2023-08-24T15:03:32.743Z,6.05
2023-08-24T15:05:05.196Z,6.83
2023-08-24T15:06:36.855Z,6.02
2023-08-24T15:08:08.409Z,9.40
2023-08-24T15:09:40.033Z,6.92
2023-08-24T15:11:11.605Z,7.27
2023-08-24T15:12:43.269Z,8.68
2023-08-24T15:14:14.792Z,8.95
2023-08-24T15:15:46.298Z,6.38
2023-08-24T15:17:17.932Z,7.41
2023-08-24T15:18:50.293Z,9.07
2023-08-24T15:20:21.881Z,8.26
2023-08-24T15:21:53.603Z,7.07
2023-08-24T15:23:25.885Z,6.91
2023-08-24T15:24:57.546Z,8.10
2023-08-24T15:26:29.136Z,10.35
2023-08-24T15:28:01.243Z,8.00
2023-08-24T15:29:32.876Z,9.28
2023-08-24T15:31:04.378Z,9.21
2023-08-24T15:32:36.168Z,9.02
2023-08-24T15:34:07.836Z,9.93
2023-08-24T15:35:39.482Z,9.88
2023-08-24T15:37:16.231Z,9.82
2023-08-24T15:38:48.195Z,9.83
2023-08-24T15:40:40.938Z,9.85
2023-08-24T15:42:13.203Z,10.67
2023-08-24T15:43:44.805Z,9.36
2023-08-24T15:45:16.465Z,9.55
2023-08-24T15:46:48.032Z,11.45
2023-08-24T15:48:19.688Z,10.89
2023-08-24T15:49:52.416Z,12.23
2023-08-24T15:51:23.962Z,13.26
2023-08-24T15:53:10.344Z,11.87
2023-08-24T15:54:41.840Z,9.42
2023-08-24T15:56:13.459Z,8.00
2023-08-24T15:57:44.919Z,6.68
2023-08-24T15:59:16.585Z,7.20
2023-08-24T16:00:48.397Z,9.61
2023-08-24T16:02:19.894Z,13.25
2023-08-24T16:03:51.485Z,10.17
2023-08-24T16:05:22.970Z,9.29
2023-08-24T16:06:54.895Z,9.38
2023-08-24T16:08:26.421Z,11.62
2023-08-24T16:09:58.173Z,9.20
2023-08-24T16:11:29.994Z,11.36
2023-08-24T16:13:01.609Z,9.65
2023-08-24T16:14:33.263Z,10.55
2023-08-24T16:16:04.826Z,10.79
2023-08-24T16:17:36.635Z,11.69
2023-08-24T16:19:09.919Z,11.28
2023-08-24T16:20:47.060Z,9.42
2023-08-24T16:22:18.972Z,9.88
2023-08-24T16:23:50.693Z,10.95
2023-08-24T16:25:22.205Z,9.81
2023-08-24T16:26:53.786Z,9.76
2023-08-24T16:28:25.618Z,11.06
2023-08-24T16:29:57.201Z,11.02
2023-08-24T16:31:30.575Z,10.14
2023-08-24T16:33:03.580Z,10.04
2023-08-24T16:34:35.303Z,8.57
2023-08-24T16:36:07.065Z,8.63
2023-08-24T16:37:39.612Z,6.93
2023-08-24T16:39:11.059Z,11.27
2023-08-24T16:40:42.540Z,6.95
2023-08-24T16:42:14.092Z,6.85
2023-08-24T16:43:45.630Z,9.42
2023-08-24T16:45:18.463Z,7.96
2023-08-24T16:46:49.898Z,7.77
2023-08-24T16:48:21.636Z,7.70
2023-08-24T16:49:53.888Z,6.65
2023-08-24T16:51:25.718Z,8.01
2023-08-24T16:52:57.187Z,8.30
2023-08-24T16:54:28.709Z,7.21
2023-08-24T16:56:00.108Z,8.60
2023-08-24T16:57:31.714Z,7.69
2023-08-24T16:59:03.463Z,9.60
2023-08-24T17:00:35.403Z,8.07
2023-08-24T17:02:07.332Z,7.36
2023-08-24T17:03:38.846Z,7.15
2023-08-24T17:05:10.611Z,7.93
2023-08-24T17:06:42.429Z,7.79
2023-08-24T17:08:14.114Z,8.21
2023-08-24T17:09:46.229Z,7.87
2023-08-24T17:11:17.748Z,6.40
2023-08-24T17:12:49.283Z,6.65
2023-08-24T17:14:22.062Z,6.72
2023-08-24T17:15:53.629Z,6.03
2023-08-24T17:17:25.330Z,6.96
2023-08-24T17:18:57.083Z,6.12
2023-08-24T17:20:29.111Z,7.59
2023-08-24T17:22:01.179Z,8.86
2023-08-24T17:23:32.710Z,11.34
2023-08-24T17:25:04.339Z,8.45
2023-08-24T17:26:35.991Z,9.76
2023-08-24T17:28:07.664Z,7.41
2023-08-24T17:29:39.308Z,7.42
2023-08-24T17:31:11.063Z,7.12
2023-08-24T17:32:44.139Z,5.99
2023-08-24T17:34:15.813Z,6.94
2023-08-24T17:35:47.554Z,6.92
2023-08-24T17:37:18.991Z,6.27
2023-08-24T17:39:02.994Z,6.84
2023-08-24T17:40:38.563Z,6.40
2023-08-24T17:42:10.041Z,7.40
2023-08-24T17:43:41.798Z,6.89
2023-08-24T17:45:13.190Z,5.76
2023-08-24T17:46:44.936Z,6.15
2023-08-24T17:48:16.775Z,6.83
2023-08-24T17:49:48.293Z,5.60
2023-08-24T17:51:20.104Z,6.87
2023-08-24T17:52:52.367Z,8.08
2023-08-24T17:54:23.871Z,6.47
2023-08-24T17:55:55.402Z,6.32
2023-08-24T17:57:26.976Z,5.32
2023-08-24T17:58:58.401Z,6.47
2023-08-24T18:00:29.813Z,7.92
2023-08-24T18:02:01.610Z,5.22
2023-08-24T18:03:33.254Z,6.01
2023-08-24T18:05:04.837Z,4.92
2023-08-24T18:06:36.519Z,4.51
2023-08-24T18:08:08.136Z,6.30
2023-08-24T18:09:39.786Z,5.80
2023-08-24T18:11:11.296Z,5.64
2023-08-24T18:12:43.023Z,5.26
2023-08-24T18:14:14.432Z,7.19
2023-08-24T18:15:46.082Z,6.25
2023-08-24T18:17:17.722Z,5.79
2023-08-24T18:18:49.382Z,5.42
2023-08-24T18:20:20.911Z,7.58
2023-08-24T18:21:52.342Z,5.94
2023-08-24T18:23:23.994Z,5.44
2023-08-24T18:24:55.692Z,4.07
2023-08-24T18:26:27.313Z,5.12
2023-08-24T18:27:59.108Z,4.75
2023-08-24T18:29:31.068Z,6.45
2023-08-24T18:31:02.499Z,7.41
2023-08-24T18:32:33.978Z,5.82
2023-08-24T18:34:05.627Z,6.74
2023-08-24T18:35:37.166Z,6.97
2023-08-24T18:37:08.638Z,5.79
2023-08-24T18:38:40.122Z,6.72
2023-08-24T18:40:11.669Z,7.30
2023-08-24T18:41:43.079Z,6.74
2023-08-24T18:43:14.628Z,5.99
2023-08-24T18:44:46.043Z,6.68
2023-08-24T18:46:17.486Z,8.29
2023-08-24T18:47:49.033Z,7.07
2023-08-24T18:49:20.830Z,5.99
2023-08-24T18:51:06.515Z,7.23
2023-08-24T18:52:37.982Z,6.60
2023-08-24T18:54:09.425Z,6.99
2023-08-24T18:55:41.309Z,7.87
2023-08-24T18:57:12.796Z,6.18
2023-08-24T18:58:44.330Z,8.04
2023-08-24T19:00:15.934Z,6.02
2023-08-24T19:01:47.676Z,6.41
2023-08-24T19:03:19.146Z,5.92
2023-08-24T19:04:50.886Z,6.46
2023-08-24T19:06:26.531Z,7.26
2023-08-24T19:08:02.296Z,8.13
2023-08-24T19:09:34.059Z,6.48
2023-08-24T19:11:05.694Z,6.24
2023-08-24T19:12:37.625Z,7.53
2023-08-24T19:14:09.182Z,6.74
2023-08-24T19:15:40.822Z,8.91
2023-08-24T19:17:12.285Z,7.84
2023-08-24T19:18:43.903Z,8.00
2023-08-24T19:20:15.426Z,9.47
2023-08-24T19:21:47.060Z,10.23
2023-08-24T19:23:18.596Z,8.27
2023-08-24T19:24:50.293Z,10.36
2023-08-24T19:26:21.776Z,12.79
2023-08-24T19:27:54.005Z,10.14
2023-08-24T19:29:25.669Z,6.85
2023-08-24T19:31:07.238Z,7.46
2023-08-24T19:32:48.851Z,6.37
2023-08-24T19:34:20.331Z,7.07
2023-08-24T19:35:51.756Z,6.71
2023-08-24T19:37:23.308Z,6.31
2023-08-24T19:38:54.813Z,8.50
2023-08-24T19:40:26.493Z,8.21
2023-08-24T19:42:00.358Z,7.61
2023-08-24T19:43:32.111Z,5.84
2023-08-24T19:45:03.578Z,5.16
2023-08-24T19:46:35.225Z,10.19
2023-08-24T19:48:06.802Z,8.60
2023-08-24T19:49:39.473Z,11.46
2023-08-24T19:51:10.884Z,7.22
2023-08-24T19:52:54.863Z,10.39
2023-08-24T19:54:26.436Z,7.76
2023-08-24T19:55:57.908Z,7.53
2023-08-24T19:57:29.484Z,5.56
2023-08-24T19:59:03.029Z,5.96
2023-08-24T20:00:34.972Z,6.44
2023-08-24T20:02:06.398Z,7.31
2023-08-24T20:03:37.950Z,6.49
2023-08-24T20:05:09.538Z,6.89
2023-08-24T20:06:41.219Z,6.56
2023-08-24T20:08:12.809Z,6.65
2023-08-24T20:09:44.331Z,8.31
2023-08-24T20:11:15.911Z,7.20
2023-08-24T20:12:47.361Z,6.83
2023-08-24T20:14:18.867Z,7.49
2023-08-24T20:15:50.370Z,5.81
2023-08-24T20:17:21.853Z,7.54